createdAt,value
2023-02-19T00:01:53.189Z,1.72
2023-02-19T00:10:16.217Z,1.59
2023-02-19T00:18:39.609Z,1.46
2023-02-19T00:27:02.397Z,1.37
2023-02-19T00:35:25.505Z,1.16
2023-02-19T00:43:53.206Z,0.87
2023-02-19T00:52:17.558Z,0.70
2023-02-19T01:00:40.445Z,0.67
2023-02-19T01:09:05.372Z,0.65
2023-02-19T01:17:28.362Z,0.60
2023-02-19T01:25:51.220Z,0.62
2023-02-19T01:34:14.054Z,0.70
2023-02-19T01:42:43.804Z,0.83
2023-02-19T01:51:11.822Z,0.98
2023-02-19T01:59:35.058Z,1.04
2023-02-19T02:08:18.927Z,1.09
2023-02-19T02:16:58.353Z,1.20
2023-02-19T02:25:24.310Z,1.26
2023-02-19T02:33:56.355Z,1.32
2023-02-19T02:42:28.357Z,1.42
2023-02-19T02:51:06.052Z,1.44
2023-02-19T02:59:38.259Z,1.42
2023-02-19T03:08:14.132Z,1.47
2023-02-19T03:16:59.291Z,1.50
2023-02-19T03:25:45.927Z,1.43
2023-02-19T03:34:17.299Z,1.40
2023-02-19T03:43:11.367Z,1.43
2023-02-19T03:51:45.080Z,1.39
2023-02-19T04:00:14.178Z,1.36
2023-02-19T04:08:40.952Z,1.39
2023-02-19T04:17:08.801Z,1.37
2023-02-19T04:25:33.399Z,1.31
2023-02-19T04:33:57.079Z,1.30
2023-02-19T04:42:19.958Z,1.34
2023-02-19T04:50:42.945Z,1.33
2023-02-19T04:59:05.938Z,1.32
2023-02-19T05:07:28.849Z,1.32
2023-02-19T05:16:03.397Z,1.33
2023-02-19T05:24:27.661Z,1.33
2023-02-19T05:32:50.533Z,1.31
2023-02-19T05:41:17.269Z,1.33
2023-02-19T05:49:40.200Z,1.35
2023-02-19T05:58:03.557Z,1.34
2023-02-19T06:06:27.442Z,1.39
2023-02-19T06:14:51.201Z,1.39
2023-02-19T06:23:14.115Z,1.35
2023-02-19T06:31:37.037Z,1.38
2023-02-19T06:40:00.006Z,1.40
2023-02-19T06:48:22.898Z,1.42
2023-02-19T06:56:47.149Z,1.50
2023-02-19T07:05:10.117Z,1.57
2023-02-19T07:13:33.060Z,1.67
2023-02-19T07:21:55.912Z,1.82
2023-02-19T07:30:18.897Z,1.92
2023-02-19T07:38:41.733Z,1.94
2023-02-19T07:47:04.628Z,1.93
2023-02-19T07:55:27.612Z,1.92
2023-02-19T08:03:50.649Z,1.98
2023-02-19T08:12:32.358Z,2.16
2023-02-19T08:20:57.571Z,2.26
2023-02-19T08:29:20.406Z,2.29
2023-02-19T08:37:43.251Z,2.34
2023-02-19T08:46:08.072Z,2.40
2023-02-19T08:54:30.905Z,2.46
2023-02-19T09:02:53.862Z,2.62
2023-02-19T09:11:16.824Z,2.76
2023-02-19T09:19:39.765Z,2.85
2023-02-19T09:28:02.598Z,3.00
2023-02-19T09:36:25.486Z,3.21
2023-02-19T09:44:51.176Z,3.38
2023-02-19T09:53:25.593Z,3.30
2023-02-19T10:01:52.119Z,3.14
2023-02-19T10:10:14.981Z,3.06
2023-02-19T10:18:42.704Z,3.05
2023-02-19T10:27:11.726Z,3.20
2023-02-19T10:35:37.478Z,3.32
2023-02-19T10:44:21.578Z,3.42
2023-02-19T10:52:44.423Z,3.53
2023-02-19T11:01:23.968Z,3.58
2023-02-19T11:09:53.840Z,3.47
2023-02-19T11:18:35.067Z,3.42
2023-02-19T11:26:59.584Z,3.49
2023-02-19T11:35:25.338Z,3.55
2023-02-19T11:44:19.660Z,3.53
2023-02-19T11:52:56.195Z,3.55
2023-02-19T12:01:37.149Z,3.59
2023-02-19T12:10:02.997Z,3.69
2023-02-19T12:18:25.812Z,3.94
2023-02-19T12:27:20.150Z,3.90
2023-02-19T12:35:55.987Z,3.99
2023-02-19T12:44:28.096Z,4.17
2023-02-19T12:52:57.214Z,4.32
2023-02-19T13:01:31.031Z,4.25
2023-02-19T13:09:59.266Z,4.11
2023-02-19T13:18:54.205Z,4.13
2023-02-19T13:27:41.294Z,4.10
2023-02-19T13:36:12.734Z,3.83
2023-02-19T13:44:38.714Z,3.75
2023-02-19T13:53:22.368Z,3.90
2023-02-19T14:01:53.980Z,4.08
2023-02-19T14:10:42.046Z,4.09
2023-02-19T14:19:14.528Z,3.84
2023-02-19T14:27:38.342Z,3.54
2023-02-19T14:36:14.125Z,3.30
2023-02-19T14:44:49.060Z,3.14
2023-02-19T14:53:16.061Z,2.99
2023-02-19T15:01:39.319Z,2.89
2023-02-19T15:10:05.848Z,2.81
2023-02-19T15:18:30.189Z,2.81
2023-02-19T15:26:54.842Z,2.76
2023-02-19T15:35:20.003Z,2.70
2023-02-19T15:44:29.442Z,2.69
2023-02-19T15:53:04.063Z,2.67
2023-02-19T16:01:29.677Z,2.59
2023-02-19T16:10:20.939Z,2.52
2023-02-19T16:18:49.198Z,2.54
2023-02-19T16:27:14.229Z,2.54
2023-02-19T16:35:42.824Z,2.50
2023-02-19T16:44:25.907Z,2.44
2023-02-19T16:52:55.982Z,2.43
2023-02-19T17:01:19.581Z,2.44
2023-02-19T17:09:42.921Z,2.39
2023-02-19T17:18:05.962Z,2.28
2023-02-19T17:26:30.992Z,2.17
2023-02-19T17:34:53.828Z,1.92
2023-02-19T17:43:16.816Z,1.58
2023-02-19T17:51:39.652Z,1.29
2023-02-19T18:00:02.704Z,1.09
2023-02-19T18:08:35.921Z,1.13
2023-02-19T18:16:58.927Z,1.27
2023-02-19T18:25:23.037Z,1.32
2023-02-19T18:33:45.938Z,1.30
2023-02-19T18:42:08.741Z,1.30
2023-02-19T18:50:33.450Z,1.26
2023-02-19T18:58:57.609Z,1.14
2023-02-19T19:07:20.870Z,1.04
2023-02-19T19:15:45.160Z,0.97
2023-02-19T19:24:08.977Z,0.86
2023-02-19T19:32:31.754Z,0.72
2023-02-19T19:40:54.819Z,0.65
2023-02-19T19:49:19.571Z,0.62
2023-02-19T19:57:42.536Z,0.51
2023-02-19T20:06:05.581Z,0.44
2023-02-19T20:14:28.658Z,0.38
2023-02-19T20:22:52.079Z,0.24
2023-02-19T20:31:15.174Z,0.12
2023-02-19T20:39:38.260Z,0.07
2023-02-19T20:48:01.424Z,0.01
2023-02-19T20:56:24.385Z,-0.05
2023-02-19T21:04:48.377Z,-0.07
2023-02-19T21:13:11.596Z,-0.10
2023-02-19T21:21:35.520Z,-0.16
2023-02-19T21:29:58.372Z,-0.22
2023-02-19T21:38:21.146Z,-0.27
2023-02-19T21:46:44.079Z,-0.42
2023-02-19T21:55:06.949Z,-0.56
2023-02-19T22:03:29.857Z,-0.63
2023-02-19T22:11:52.814Z,-0.67
2023-02-19T22:20:17.330Z,-0.76
2023-02-19T22:28:40.154Z,-0.82
2023-02-19T22:37:03.041Z,-0.85
2023-02-19T22:45:26.367Z,-0.96
2023-02-19T22:53:51.699Z,-1.01
2023-02-19T23:02:14.567Z,-1.00
2023-02-19T23:10:37.693Z,-1.03
2023-02-19T23:19:00.518Z,-1.11
2023-02-19T23:27:24.350Z,-1.16
2023-02-19T23:35:47.510Z,-1.19
2023-02-19T23:44:10.364Z,-1.29
2023-02-19T23:52:33.178Z,-1.32
